Terminal Aerodrome Forecast
Issued by NWS Cleveland, OH

Home | Current Version | Previous Version | Graphics & Text | Print | Product List | Glossary Off
Versions: 1 2 3 4 5 6 7 8 9 10 11 12 13 14 15 16 17 18 19 20

000
FTUS41 KCLE 251759 CCB
TAFERI
TAF COR
KERI 251759Z 2518/2618 29010G18KT 2SM -RA BR OVC006
      TEMPO 2518/2522 1/2SM -RA FG OVC002
     FM252200 29010KT P6SM BKN015 OVC035
     FM261100 28010KT P6SM SCT025 BKN035=

USA.gov is the U.S. government's official web portal to all federal, state and local government web resources and services.